Stefan Haaland

Chief Scout - Rosenborg
13 Feb 2028
Sunday
Process

Personality

Adaptability (10) Ambition (11) Controversy (14) Loyalty (20) Pressure (7) Professionalism (9) Sportsmanship (15) Temperament (17)

Profile

Coaching Style Democratic
License Continental B
Determination 10
Man Management 6
Motivating 7
Discipline 10
Job Satisfaction
100%
Fatigue
0%
Role Chief Scout
Wage 92.7K p/w
Contract 14.03.2029

Performance

Behaviour Good
Training Effectiveness
44%
Player Development
30%
Injury Prevention
30%
Tactical Implementation
60%

Recent Events

Attended a recruitment meeting 7d ago
Attended a recruitment meeting 7d ago
Attended a recruitment meeting 7d ago
Assessed a player 7d ago
Presented a dossier to the board 7d ago
Attended a recruitment meeting 14d ago
Attended a recruitment meeting 14d ago
Attended a recruitment meeting 14d ago

Currently Monitoring

220
Player Club Status Ability Confidence Watched Last Observed Latest Vote
Jonathan Norbye Haugesund Report Ready 104 / 111 72% 1 07.02.2028 -
Pyry Hannola Haugesund Report Ready 96 / 102 72% 1 03.02.2028 -
Dor Turgeman Rubin Negotiating 145 / 143 40% 1 01.02.2028 -
Karlan Grant Tranmere Rovers Active 124 / 128 40% 1 01.02.2028 -
Alexis Cuello San Lorenzo Active 131 / 127 40% 1 01.02.2028 -
Lucas Souto Defensa y Justicia Active 130 / 118 40% 6 03.01.2028 -
Odin Bjørtuft Bodo/Glimt Active 130 / 136 40% 5 03.01.2028 -
Quilindschy Hartman Burnley Active 145 / 143 40% 1 03.01.2028 -
Jherson Mosquera Newell's Old Boys Active 130 / 125 40% 1 30.12.2027 -
Rodrigo Herrera Newell's Old Boys Active 131 / 119 40% 1 30.12.2027 -
Loïc Williams Colorado Rapids Active 120 / 125 40% 1 30.12.2027 -
Damián Fernández Defensa y Justicia Active 122 / 131 40% 1 28.12.2027 -
Emanuel Mammana Vélez Active 129 / 129 40% 1 28.12.2027 -
Joaquín García Vélez Active 135 / 126 40% 1 28.12.2027 -
Sondre Brunstad Fet Bodo/Glimt Active 124 / 122 40% 1 27.12.2027 -
Nicolás Tripichio San Lorenzo Active 129 / 120 40% 1 27.12.2027 -
Hernán de la Fuente Instituto Active 122 / 126 40% 2 26.12.2027 -
Guillermo Enrique Huracán Active 124 / 126 40% 1 26.12.2027 -
Nicolás Fernández Penarol Active 122 / 123 40% 1 26.12.2027 -
Gastón Benedetti Estudiantes Active 131 / 123 40% 2 25.12.2027 -
Ignacio Rodríguez Racing Club Active 128 / 121 40% 2 25.12.2027 -
Adrián Sánchez Belgrano Active 121 / 122 40% 1 25.12.2027 -
Fredrik Bjørkan Bodo/Glimt Active 129 / 125 40% 3 24.12.2027 -
Emanuel Coronel Rosario Central Active 126 / 130 40% 1 24.12.2027 -
César Ibáñez Huracán Active 130 / 124 40% 1 23.12.2027 -
Aarón Quiros Vélez Active 131 / 134 40% 2 22.12.2027 -
Emerson Royal Flamengo Active 136 / 129 40% 1 22.12.2027 -
Joe Bell Viking Active 128 / 123 40% 6 20.12.2027 -
Brice Ambina Valerenga Active 131 / 123 40% 2 19.12.2027 -
Santiago González Tigre Active 135 / 123 40% 1 08.12.2027 -
Bruno Leyes Godoy Cruz Active 125 / 121 40% 1 08.12.2027 -
Gastón Hernández San Lorenzo Active 128 / 130 40% 1 08.12.2027 -
Nahitan Nández Bodo/Glimt Active 137 / 144 40% 1 06.12.2027 -
Matías Canedo Rampla Juniors Active 81 / 97 40% 2 18.11.2027 -
Julián Bazán New York Red Bulls Active 121 / 128 40% 7 18.11.2027 -
Esquerdinha Notts County Active 115 / 125 40% 1 18.11.2027 -
Daniel Idoko Ikorodu City Active 83 / 90 40% 3 15.11.2027 -
Josh Nichols Oldham Athletic Active 124 / 120 40% 2 15.11.2027 -
Nazareno Roselli Defensa y Justicia Active 116 / 114 40% 3 13.11.2027 -
Joel Ezra Enyimba Active 99 / 108 40% 5 13.11.2027 -
Honest Ahanor Atalanta Active 136 / 147 40% 2 13.11.2027 -
Vinícius Lira São Paulo Active 110 / 116 40% 1 12.11.2027 -
Kenan Busuladžić Malmo FF Active 115 / 117 40% 1 12.11.2027 -
David Damboama El-Kanemi Warriors Active 86 / 102 40% 3 11.11.2027 -
Pedro Soma San Diego Football Club Active 110 / 115 40% 2 11.11.2027 -
Gideon Manaseh Ikorodu City Active 90 / 101 40% 3 10.11.2027 -
Colin Guske Orlando City Active 96 / 109 40% 3 10.11.2027 -
Mikkel Hope Haugesund Active 108 / 111 40% 1 10.11.2027 -
Lucas Bergvall Tottenham Active 150 / 158 40% 2 09.11.2027 -
Godwin Oham Warri Wolves Active 88 / 81 40% 8 09.11.2027 -
Olaniyi Saheed Kwara United Active 89 / 103 40% 6 09.11.2027 -
Diego Vargas Universidad de Concepcion Active 94 / 92 40% 5 08.11.2027 -
Ignacio Fernández Boston River Active 98 / 102 40% 3 08.11.2027 -
Josh Acheampong Everton Active 140 / 142 40% 1 07.11.2027 -
Archie Gray Southampton Active 155 / 150 40% 2 06.11.2027 -
Chris Rigg Sunderland Active 138 / 139 40% 1 06.11.2027 -
Victor Hernandez Santa Fe Active 125 / 124 40% 3 05.11.2027 -
Onyeuche Ujunwa Ikorodu City Active 85 / 84 40% 2 04.11.2027 -
Tiago Gordillo San Miguel Active 90 / 92 40% 3 02.11.2027 -
Francisco Machis Llaneros Active 81 / 92 40% 3 02.11.2027 -
Edvard Pettersen Sandefjord Active 111 / 117 40% 3 01.11.2027 -
Juan Camilo Córdoba Deportivo Pereira Active 82 / 94 40% 2 01.11.2027 -
Matias Siltanen Malmo FF Active 126 / 131 40% 3 07.10.2027 -
Josh King Newcastle United Active 144 / 151 40% 1 07.10.2027 -
Hosea Michael Remo Stars Active 80 / 82 40% 4 06.10.2027 -
Agustín De la Cuesta Racing Active 117 / 113 40% 1 05.10.2027 -
Oscar Steinke Brånby Hammarby Active 96 / 102 40% 2 03.10.2027 -
Sebastián Ramírez Aguilas Doradas Active 103 / 116 40% 1 02.10.2027 -
Juan Diego Perdomo Depor Active 82 / 98 40% 3 01.10.2027 -
Jonny Shore New York City Active 101 / 109 40% 2 01.10.2027 -
Ivan Borges Defensores Active 79 / 85 40% 1 30.09.2027 -
Mohamed Moussa Koïta Mathare United Active 103 / 102 40% 1 26.09.2027 -
Lucas Nicol Mjondalen Active 79 / 86 40% 1 25.09.2027 -
Isaías Silva Miramar Misiones Active 76 / 89 40% 1 24.09.2027 -
Marco Morigi Caracas Active 88 / 98 40% 1 23.09.2027 -
Azizbek To'lqinbekov Bunyodkor Active 93 / 101 40% 2 22.09.2027 -
Tobias Moi Lillestrom Active 110 / 107 40% 1 21.09.2027 -
Chibueze Oputa Rangers International Active 80 / 98 40% 1 19.09.2027 -
Lucas Camejo River Plate Active 81 / 90 40% 2 13.09.2027 -
Yury Oyarzo Racing Active 89 / 103 40% 1 12.09.2027 -
Caleb Yirenkyi Coventry City Active 138 / 142 40% 1 09.09.2027 -
Issa Yusuf Shooting Stars Active 82 / 83 40% 1 09.09.2027 -
Óscar Hinojosa Metropolitanos Active 77 / 87 40% 1 08.09.2027 -
Mpho Khethang FC Diarra Active 92 / 94 40% 1 06.09.2027 -
Giovanni Leoni Lincoln City Active 137 / 150 40% 1 06.09.2027 -
Simone Mazzocchi Cosenza Active 118 / 114 40% 1 16.08.2027 -
Assane Diao Como Active 154 / 159 40% 11 09.08.2027 -
Lorent Tolaj Plymouth Argyle Active 121 / 117 40% 4 18.07.2027 -
Patrick Cutrone Monza Active 135 / 128 40% 6 18.07.2027 -
Nicolò Zaniolo Udinese Active 143 / 147 40% 1 18.07.2027 -
Aidomo Emakhu Oxford United Active 129 / 122 40% 3 14.07.2027 -
Marezi Portsmouth Active 122 / 119 40% 2 14.07.2027 -
Oli McBurnie Hull City Active 140 / 134 40% 3 12.07.2027 -
Mohamed-Ali Cho Hull City Active 136 / 135 40% 3 10.07.2027 -
Ilyas Ansah Hull City Active 130 / 144 40% 6 10.07.2027 -
Moussa Yeo Swansea City Active 123 / 129 40% 1 09.07.2027 -
Daniel Kyerewaa Reading Active 119 / 113 40% 2 08.07.2027 -
Sam Greenwood Bristol City Active 128 / 118 40% 4 08.07.2027 -
Lorenzo Colombo Genoa Active 145 / 137 40% 4 08.07.2027 -
Callum Lang Preston Active 125 / 125 40% 1 08.07.2027 -
Oladapo Afolayan Blackburn Rovers Active 133 / 131 40% 5 07.07.2027 -
Hidemasa Morita Hull City Active 145 / 144 40% 2 07.07.2027 -
Max Johnston Derby County Active 135 / 132 40% 1 07.07.2027 -
Ali Ahmed Norwich City Active 124 / 132 40% 2 05.07.2027 -
Derensili Sanches Fernandes Huddersfield Town Active 133 / 124 40% 3 05.07.2027 -
Carlos Vicente Birmingham Active 143 / 145 40% 2 05.07.2027 -
Tyrese Campbell Sheffield United Active 127 / 124 40% 8 04.07.2027 -
Callum O'Hare Sheffield United Active 138 / 128 40% 2 01.07.2027 -
Richard Koné Queens Park Rangers Active 123 / 130 40% 4 30.06.2027 -
Bongani Khune SuperSport United Active 140 / 121 40% 4 29.06.2027 -
Eddie Nketiah Crystal Palace Active 137 / 137 40% 2 27.06.2027 -
Aaron Collins Milton Keynes Dons Active 118 / 118 40% 2 27.06.2027 -
Scott Twine Bristol City Active 124 / 126 40% 1 27.06.2027 -
Samuel Edozie Southampton Active 125 / 126 40% 2 25.06.2027 -
Aune Heggebø West Bromwich Albion Active 127 / 126 40% 2 24.06.2027 -
Jack McGlynn Stoke City Active 129 / 128 40% 1 23.06.2027 -
Jason Knight Bristol City Active 131 / 129 40% 1 23.06.2027 -
Joe Gelhardt Hull City Active 133 / 128 40% 5 21.06.2027 -
Yousef Salech Cardiff City Active 125 / 123 40% 5 20.06.2027 -
Abu Kamara Portsmouth Active 120 / 123 40% 1 13.06.2027 -
Patson Daka Leicester City Active 124 / 132 40% 2 12.06.2027 -
Bobby Clark Derby County Active 125 / 119 40% 1 07.06.2027 -
Rocco Vata Watford Active 117 / 125 40% 4 04.06.2027 -
Gianluca Scamacca Atalanta Active 156 / 153 40% 4 04.06.2027 -
Koki Saito Queens Park Rangers Active 127 / 121 40% 1 03.06.2027 -
Josh Coburn Millwall Active 120 / 118 40% 3 01.06.2027 -
Malick Fofana Sunderland Active 151 / 140 40% 1 31.05.2027 -
Kyle Wootton Stockport County Active 122 / 116 40% 5 30.05.2027 -
Adrien Truffert Bournemouth Active 155 / 144 40% 1 23.05.2027 -
Keinan Davis Udinese Active 129 / 135 40% 1 21.05.2027 -
Nordi Mukiele Sunderland Active 152 / 141 40% 1 18.05.2027 -
Finn Azaz Southampton Active 128 / 126 40% 1 17.05.2027 -
Matt O'Riley Brighton Active 152 / 141 40% 1 17.05.2027 -
Cameron Archer Southampton Active 124 / 120 40% 1 14.05.2027 -
Brian Brobbey Sunderland Active 141 / 145 40% 1 14.05.2027 -
Oswin Appollis Orlando Pirates Active 117 / 121 40% 4 11.05.2027 -
Sorba Thomas Stoke City Active 138 / 128 40% 2 11.05.2027 -
Amine Adli Bournemouth Active 144 / 143 40% 1 11.05.2027 -
Zian Flemming Ipswich Town Active 128 / 127 40% 2 08.05.2027 -
Wilson Isidor Sunderland Active 138 / 139 40% 4 05.05.2027 -
Giacomo Raspadori Atalanta Active 151 / 138 40% 2 29.04.2027 -
Che Adams Torino Active 137 / 132 40% 2 28.04.2027 -
Ioannis Pittas CSKA Sofia Active 116 / 124 40% 1 18.03.2027 -
David Romero Parma Active 125 / 123 40% 1 17.03.2027 -
John Yeboah Venezia Active 123 / 116 40% 1 17.03.2027 -
Germán Barbas Burgos Active 107 / 120 40% 1 02.03.2027 -
Vegard Erlien Tromso Active 131 / 114 40% 1 01.02.2027 Needs More Info
Kwadwo Duah Ludogorets Active 127 / 122 40% 1 01.02.2027 -
Franko Kovačević Ferencvaros Active 115 / 127 40% 1 01.02.2027 -
Osher Davida Maccabi Tel Aviv Active 111 / 116 40% 2 31.01.2027 -
Armstrong Oko-Flex Levski Active 111 / 131 40% 5 30.01.2027 -
Themba Williams Ajax Cape Town Active 108 / 126 40% 7 29.01.2027 -
Hannibal Burnley Active 132 / 130 40% 1 29.01.2027 -
Stav Toriel Hapoel Tel Aviv Active 125 / 117 40% 5 28.01.2027 -
Celso Sidney Cherno More Active 105 / 111 40% 1 28.01.2027 -
João Félix Dinamo Moscow Active 148 / 155 40% 6 27.01.2027 -
Etiosa Ighodaro Kaizer Chiefs Active 107 / 116 40% 1 27.01.2027 -
Håkon Evjen Bodo/Glimt Lost 135 / 138 40% 7 26.01.2027 Monitor
Bongani Zungu Ajax Cape Town Active 136 / 123 40% 4 26.01.2027 -
Erik Botheim Viking Active 124 / 125 40% 3 23.01.2027 -
Wandile Duba ASO Chlef Active 100 / 107 40% 2 21.01.2027 -
Aldair Faustino Levski Active 110 / 126 40% 2 21.01.2027 -
Álex Centelles Levski Active 137 / 127 40% 1 21.01.2027 -
Matej Trusa DAC Dunajska Streda Active 125 / 107 40% 1 20.01.2027 -
Erick Dolly Black Aces Active 103 / 111 40% 1 20.01.2027 -
Petar Stanić Ludogorets Active 134 / 139 40% 9 16.01.2027 -
Esequiel Barco Spartak Moscow Active 139 / 130 40% 2 16.01.2027 -
Bradley Zwane SuperSport United Active 112 / 104 40% 5 10.01.2027 -
Stephen Amankona Aduana Stars Active 104 / 103 40% 1 07.01.2027 -
Ivo Mammini Beitar Jerusalem Active 109 / 121 40% 1 07.01.2027 -
Job Ochieng Real Sociedad Active 112 / 111 40% 1 06.01.2027 -
Suleiman Camara Slovan Bratislava Active 125 / 126 40% 4 02.01.2027 -
Iker Pozo Rodina Active 106 / 121 40% 1 02.01.2027 -
Evidence Makgopa Orlando Pirates Active 112 / 107 40% 2 31.12.2026 -
José Martínes CSKA 1948 Active 106 / 100 40% 2 29.12.2026 -
Peter Valjent FK Senica Active 110 / 112 40% 1 29.12.2026 -
Ronaldo Vásquez Sumgayit Active 129 / 113 40% 1 28.12.2026 -
Léo Pereira CSKA Sofia Active 122 / 128 40% 1 25.12.2026 -
Marquinhos Spartak Moscow Active 122 / 123 40% 3 23.12.2026 -
Matěj Koubek MFK Ruzomberok Active 111 / 105 40% 1 22.12.2026 -
Isaac Matondo Koper Active 114 / 97 40% 1 22.12.2026 -
Ammar Ramadan DAC Dunajska Streda Active 132 / 116 40% 2 21.12.2026 -
Radek Šiler Podbrezova Active 108 / 120 40% 1 21.12.2026 -
Jacques Siwe Rubin Active 124 / 117 40% 1 20.12.2026 -
Thalente Mbatha Orlando Pirates Active 117 / 128 40% 1 17.12.2026 -
Marcelo Allende Mamelodi Sundowns Active 137 / 133 40% 6 14.12.2026 -
Adu Ares Eibar Active 128 / 113 40% 3 13.12.2026 -
Evangelos Patoulidis Sandefjord Active 117 / 115 40% 3 10.12.2026 -
Manu Morlanes Mallorca Active 134 / 136 40% 2 09.12.2026 -
Dennis Gjengaar Valerenga Active 108 / 111 40% 1 09.12.2026 -
Sergey Pinyaev Lokomotiv Moscow Active 123 / 124 40% 6 06.12.2026 -
Danil Glebov Dinamo Moscow Active 134 / 122 40% 1 06.12.2026 -
Rubens Dinamo Moscow Active 130 / 141 40% 1 05.12.2026 -
Reda Khadra Qarabag Active 129 / 132 40% 3 28.11.2026 -
Kirill Glebov CSKA Moscow Active 132 / 134 40% 3 27.11.2026 -
Ole-Didrik Blomberg Bodo/Glimt Active 124 / 135 40% 4 25.11.2026 -
Uba Charles Aalesund Active 107 / 121 40% 2 21.11.2026 -
Kevin Krygård Lillestrom Active 118 / 125 40% 3 14.11.2026 -
Matthias Seidl Rapid Wien Active 119 / 129 40% 2 12.11.2026 -
Gedson Fernandes Spartak Moscow Active 145 / 130 40% 2 10.11.2026 -
Alexandr Chernikov Krasnodar Active 136 / 131 40% 1 09.11.2026 -
Jakob Dunsby Sandefjord Active 116 / 112 40% 1 08.11.2026 -
Lechi Sadulaev Akhmat Grozny Active 129 / 123 40% 1 06.11.2026 -
Tyrhys Dolan Espanyol Active 134 / 135 40% 5 05.11.2026 -
Sturla Ottesen Lillestrom Active 110 / 105 40% 1 03.11.2026 -
Tio Cipot NK Maribor Active 122 / 128 40% 1 01.11.2026 -
Andrei Cordea CFR Cluj Active 126 / 117 40% 1 27.10.2026 -
Mariano Bracamonte Deportivo Riestra Active 119 / 122 40% 3 13.10.2026 -
David Edvardsson Tromso Active 114 / 118 40% 2 12.10.2026 -
Sander Risan Mørk Sandefjord Active 115 / 115 40% 2 10.10.2026 -
Markus Soomets IK Start Active 122 / 107 40% 1 09.10.2026 -
Mehdi Hashemnejad Tractor Active 114 / 104 40% 2 02.10.2026 -
Amir Hossein Hosseinzadeh Tractor Active 123 / 134 40% 1 22.09.2026 -
Majid Jahanbakhsh Rah Ahan Active 132 / 137 40% 1 22.09.2026 -
Oston O'runov Persepolis Active 118 / 117 40% 1 21.09.2026 -
Thomas Carrique Andorra Active 112 / 118 40% 1 18.09.2026 -
Ramiro Ruiz Rodríguez Atlético Tucumán Active 123 / 127 40% 1 16.09.2026 -
Petar Mićin Viking Active 113 / 119 40% 1 13.09.2026 -
Oufa Shobeir MC Alger Active 120 / 122 40% 1 10.08.2026 -
Florin Tănase Omonoia Active 133 / 131 40% 1 04.08.2026 -